createdAt,value
2019-03-09T00:06:20.825Z,12.6
2019-03-09T00:16:20.032Z,12.9
2019-03-09T00:26:19.243Z,13
2019-03-09T00:36:18.455Z,12.9
2019-03-09T00:46:17.736Z,12.6
2019-03-09T00:56:17.023Z,13
2019-03-09T01:06:16.311Z,12.5
2019-03-09T01:16:15.596Z,12.7
2019-03-09T01:26:14.881Z,12.9
2019-03-09T01:36:14.132Z,12.6
2019-03-09T01:46:13.343Z,12.9
2019-03-09T01:56:12.555Z,12.7
2019-03-09T02:06:11.763Z,12.6
2019-03-09T02:16:10.971Z,13.2
2019-03-09T02:26:10.182Z,13.1
2019-03-09T02:36:09.391Z,12.7
2019-03-09T02:46:08.609Z,13.1
2019-03-09T02:56:07.861Z,12.7
2019-03-09T03:06:07.024Z,13
2019-03-09T03:16:06.236Z,12.6
2019-03-09T03:26:05.451Z,12.4
2019-03-09T03:36:04.653Z,12.9
2019-03-09T03:46:03.860Z,13.2
2019-03-09T03:56:03.075Z,13
2019-03-09T04:06:02.286Z,13.1
2019-03-09T04:16:01.486Z,12.6
2019-03-09T04:26:00.694Z,12.5
2019-03-09T04:35:59.903Z,12.6
2019-03-09T04:45:59.112Z,13.1
2019-03-09T04:55:58.321Z,13.2
2019-03-09T05:05:57.528Z,12.7
2019-03-09T05:15:56.737Z,12.4
2019-03-09T05:25:55.945Z,12.6
2019-03-09T05:35:55.158Z,13.1
2019-03-09T05:45:54.360Z,13.3
2019-03-09T05:55:53.570Z,13
2019-03-09T06:05:52.777Z,12.6
2019-03-09T06:15:51.986Z,12.8
2019-03-09T06:25:51.268Z,13.4
2019-03-09T06:35:50.407Z,13.7
2019-03-09T06:45:49.622Z,13.4
2019-03-09T06:55:48.828Z,14
2019-03-09T07:05:48.035Z,14.8
2019-03-09T07:15:47.246Z,14.7
2019-03-09T07:25:46.456Z,14.3
2019-03-09T07:35:45.668Z,14.1
2019-03-09T07:45:44.883Z,14.2
2019-03-09T07:55:44.089Z,14.4
2019-03-09T08:05:43.309Z,14.4
2019-03-09T08:15:42.514Z,14
2019-03-09T08:25:41.723Z,13.9
2019-03-09T08:35:40.943Z,14
2019-03-09T08:45:40.171Z,13.9
2019-03-09T08:55:39.362Z,14.4
2019-03-09T09:05:39.620Z,14.2
2019-03-09T09:15:37.797Z,14.5
2019-03-09T09:25:37.026Z,14.5
2019-03-09T09:35:36.246Z,14.2
2019-03-09T09:45:35.464Z,14.4
2019-03-09T09:55:34.693Z,13.8
2019-03-09T10:05:33.910Z,13.8
2019-03-09T10:15:33.130Z,14.1
2019-03-09T10:25:32.350Z,14.6
2019-03-09T10:35:31.573Z,14.3
2019-03-09T10:45:30.783Z,13.9
2019-03-09T10:55:29.999Z,14.4
2019-03-09T11:05:29.214Z,14.6
2019-03-09T11:15:28.429Z,14.4
2019-03-09T11:25:27.646Z,14
2019-03-09T11:32:30.270Z,14.3
2019-03-09T11:42:29.486Z,13.9
2019-03-09T11:52:29.264Z,14.1
2019-03-09T12:02:38.238Z,14.5
2019-03-09T12:12:27.133Z,14.2
2019-03-09T12:22:26.352Z,14
2019-03-09T12:32:25.573Z,14.7
2019-03-09T12:42:24.849Z,14.4
2019-03-09T12:52:24.139Z,14.2
2019-03-09T13:02:23.431Z,13.5
2019-03-09T13:12:22.722Z,14.3
2019-03-09T13:22:22.013Z,13.8
2019-03-09T13:32:21.265Z,13.9
2019-03-09T13:42:20.480Z,13.9
2019-03-09T13:52:19.695Z,14.4
2019-03-09T14:02:18.908Z,14.1
2019-03-09T14:12:18.120Z,14.7
2019-03-09T14:22:17.335Z,13
2019-03-09T14:32:16.559Z,13
2019-03-09T14:42:15.762Z,12.7
2019-03-09T14:52:14.981Z,13.1
2019-03-09T15:02:14.188Z,12.9
2019-03-09T15:12:13.402Z,12.7
2019-03-09T15:22:12.616Z,12.9
2019-03-09T15:32:11.829Z,12.5
2019-03-09T15:42:11.089Z,12.6
2019-03-09T15:52:10.527Z,12.5
2019-03-09T16:02:09.475Z,13.1
2019-03-09T16:12:08.695Z,12.5
2019-03-09T16:22:07.906Z,13.2
2019-03-09T16:32:07.122Z,12.9
2019-03-09T16:42:06.342Z,13
2019-03-09T16:52:05.550Z,13.2
2019-03-09T17:02:04.764Z,12.8
2019-03-09T17:12:04.031Z,13.2
2019-03-09T17:22:03.197Z,12.4
2019-03-09T17:32:02.407Z,12.9
2019-03-09T17:37:19.146Z,12.5
2019-03-09T17:47:18.365Z,12.6
2019-03-09T17:57:17.575Z,13.1
2019-03-09T18:07:16.793Z,13.1
2019-03-09T18:17:16.006Z,12.7
2019-03-09T18:27:15.269Z,12.8
2019-03-09T18:37:14.433Z,13.1
2019-03-09T18:47:13.718Z,12.8
2019-03-09T18:57:13.009Z,13
2019-03-09T19:07:12.302Z,12.5
2019-03-09T19:17:11.592Z,12.8
2019-03-09T19:27:10.883Z,12.7
2019-03-09T19:37:10.138Z,12.4
2019-03-09T19:47:09.359Z,12.7
2019-03-09T19:57:08.567Z,12.4
2019-03-09T20:07:07.783Z,12.8
2019-03-09T20:17:07.006Z,13.1
2019-03-09T20:27:06.214Z,13
2019-03-09T20:37:05.431Z,12.5
2019-03-09T20:47:04.657Z,13.2
2019-03-09T20:57:03.865Z,13.2
2019-03-09T21:07:03.087Z,12.9
2019-03-09T21:17:02.302Z,12.4
2019-03-09T21:27:01.524Z,13.2
2019-03-09T21:37:00.727Z,13.1
2019-03-09T21:46:59.942Z,12.8
2019-03-09T21:56:59.159Z,12.5
2019-03-09T22:06:58.373Z,12.7
2019-03-09T22:16:57.586Z,12.5
2019-03-09T22:26:56.802Z,13.1
2019-03-09T22:36:56.116Z,12.5
2019-03-09T22:46:55.230Z,13.1
2019-03-09T22:56:54.443Z,13.2
2019-03-09T23:06:53.656Z,12.7
2019-03-09T23:16:52.871Z,12.6
2019-03-09T23:26:52.087Z,12.8
2019-03-09T23:36:51.299Z,12.9
2019-03-09T23:46:50.509Z,13.3
2019-03-09T23:56:49.725Z,12.9
